createdAt,value
2019-05-07T00:04:37.783Z,10.55
2019-05-07T00:09:45.441Z,13.06
2019-05-07T00:25:12.356Z,10.81
2019-05-07T00:30:12.712Z,10.49
2019-05-07T00:35:14.726Z,11.21
2019-05-07T00:40:18.598Z,10.27
2019-05-07T00:45:17.048Z,10.25
2019-05-07T00:50:14.334Z,9.99
2019-05-07T00:55:22.810Z,11.71
2019-05-07T01:00:30.119Z,13.13
2019-05-07T01:05:39.493Z,13.75
2019-05-07T01:10:47.021Z,12.03
2019-05-07T01:15:54.294Z,13.19
2019-05-07T01:21:02.419Z,12.55
2019-05-07T01:26:12.281Z,14.03
2019-05-07T01:31:17.607Z,13.07
2019-05-07T01:36:25.835Z,10.66
2019-05-07T01:41:34.380Z,13.46
2019-05-07T01:46:54.413Z,13.03
2019-05-07T01:51:42.807Z,12.04
2019-05-07T01:56:52.154Z,16.29
2019-05-07T02:01:58.582Z,13.76
2019-05-07T02:07:18.800Z,12.19
2019-05-07T02:12:06.104Z,15.40
2019-05-07T02:17:27.284Z,15.85
2019-05-07T02:22:14.613Z,15.94
2019-05-07T02:27:22.187Z,17.12
2019-05-07T02:32:43.370Z,15.73
2019-05-07T02:37:37.611Z,18.19
2019-05-07T02:42:49.867Z,17.54
2019-05-07T02:47:37.223Z,16.58
2019-05-07T02:52:44.515Z,18.31
2019-05-07T02:57:54.019Z,17.84
2019-05-07T03:03:00.131Z,18.62
2019-05-07T03:08:08.338Z,16.11
2019-05-07T03:13:17.123Z,16.92
2019-05-07T03:18:25.405Z,18.08
2019-05-07T03:23:34.086Z,19.51
2019-05-07T03:28:42.759Z,17.83
2019-05-07T03:33:48.151Z,20.34
2019-05-07T03:38:56.540Z,19.16
2019-05-07T03:44:04.149Z,16.05
2019-05-07T03:49:13.663Z,20.68
2019-05-07T03:54:19.738Z,19.95
2019-05-07T03:59:27.981Z,17.77
2019-05-07T04:04:35.596Z,18.52
2019-05-07T04:09:43.730Z,20.68
2019-05-07T04:14:53.241Z,20.70
2019-05-07T04:20:13.464Z,25.41
2019-05-07T04:25:00.156Z,24.09
2019-05-07T04:30:12.892Z,21.91
2019-05-07T04:34:58.738Z,24.61
2019-05-07T04:40:19.827Z,23.61
2019-05-07T04:45:09.472Z,22.39
2019-05-07T04:50:41.432Z,26.30
2019-05-07T04:55:33.422Z,23.36
2019-05-07T05:00:18.499Z,23.10
2019-05-07T05:05:27.778Z,20.78
2019-05-07T05:10:48.024Z,24.75
2019-05-07T05:15:48.241Z,21.60
2019-05-07T05:20:35.473Z,22.06
2019-05-07T05:25:44.098Z,18.44
2019-05-07T05:30:52.852Z,19.77
2019-05-07T05:36:00.102Z,19.49
2019-05-07T05:41:22.474Z,19.57
2019-05-07T05:46:22.658Z,25.39
2019-05-07T05:51:08.273Z,24.21
2019-05-07T05:56:18.592Z,20.30
2019-05-07T06:06:23.787Z,18.91
2019-05-07T06:11:32.303Z,21.75
2019-05-07T06:16:52.687Z,18.47
2019-05-07T06:21:41.891Z,17.45
2019-05-07T06:27:00.161Z,16.27
2019-05-07T06:32:02.488Z,17.84
2019-05-07T06:37:02.318Z,15.49
2019-05-07T06:41:48.072Z,15.58
2019-05-07T06:47:08.335Z,19.66
2019-05-07T06:51:56.465Z,16.62
2019-05-07T06:57:17.697Z,18.34
2019-05-07T07:07:22.453Z,16.29
2019-05-07T07:12:29.358Z,16.91
2019-05-07T07:17:17.820Z,14.92
2019-05-07T07:22:25.951Z,16.48
2019-05-07T07:27:46.958Z,15.17
2019-05-07T07:32:35.195Z,17.79
2019-05-07T07:37:43.646Z,15.73
2019-05-07T07:43:07.019Z,12.06
2019-05-07T07:47:53.035Z,13.51
2019-05-07T07:52:59.802Z,10.65
2019-05-07T07:58:07.916Z,11.01
2019-05-07T08:03:16.319Z,10.44
2019-05-07T08:08:37.657Z,11.79
2019-05-07T08:13:37.982Z,7.87
2019-05-07T08:18:38.465Z,10.34
2019-05-07T08:23:38.610Z,9.64
2019-05-07T08:28:26.037Z,10.05
2019-05-07T08:33:33.226Z,10.48
2019-05-07T08:38:54.791Z,9.34
2019-05-07T08:44:08.260Z,9.34
2019-05-07T08:53:56.686Z,8.49
2019-05-07T08:58:46.270Z,7.69
2019-05-07T09:04:06.442Z,8.01
2019-05-07T09:09:07.554Z,7.70
2019-05-07T09:14:08.616Z,7.77
2019-05-07T09:19:09.998Z,6.35
2019-05-07T09:24:12.225Z,7.60
2019-05-07T09:28:57.624Z,6.93
2019-05-07T09:34:04.960Z,8.17
2019-05-07T09:39:12.246Z,7.49
2019-05-07T09:44:19.460Z,9.76
2019-05-07T09:49:27.750Z,5.88
2019-05-07T09:54:48.765Z,9.33
2019-05-07T09:59:36.109Z,7.53
2019-05-07T10:04:57.427Z,11.28
2019-05-07T10:09:44.909Z,6.59
2019-05-07T10:14:52.354Z,8.19
2019-05-07T10:20:21.565Z,7.41
2019-05-07T10:24:59.836Z,5.75
2019-05-07T10:35:09.567Z,6.89
2019-05-07T10:40:29.712Z,7.31
2019-05-07T10:45:18.120Z,6.82
2019-05-07T10:50:39.300Z,7.45
2019-05-07T10:55:45.504Z,7.16
2019-05-07T11:00:43.386Z,5.85
2019-05-07T11:05:32.410Z,6.64
2019-05-07T11:10:38.080Z,7.16
2019-05-07T11:20:54.076Z,7.92
2019-05-07T11:26:14.265Z,6.59
2019-05-07T11:31:02.040Z,8.23
2019-05-07T11:36:08.884Z,6.71
2019-05-07T11:41:17.052Z,7.72
2019-05-07T11:46:25.452Z,5.68
2019-05-07T11:51:45.854Z,6.42
2019-05-07T11:56:33.077Z,7.75
2019-05-07T12:01:54.240Z,7.10
2019-05-07T12:17:06.221Z,6.22
2019-05-07T12:21:53.838Z,5.68
2019-05-07T12:27:14.875Z,5.39
2019-05-07T12:32:17.216Z,5.72
2019-05-07T12:37:17.360Z,6.07
2019-05-07T12:42:18.511Z,4.22
2019-05-07T12:47:06.794Z,6.29
2019-05-07T12:52:27.299Z,12.08
2019-05-07T12:57:27.462Z,4.90
2019-05-07T13:02:33.882Z,7.94
2019-05-07T13:07:37.382Z,5.08
2019-05-07T13:12:37.700Z,5.27
2019-05-07T13:17:24.958Z,7.57
2019-05-07T13:22:33.464Z,5.57
2019-05-07T13:27:53.613Z,4.53
2019-05-07T13:32:55.082Z,4.07
2019-05-07T13:37:42.290Z,5.20
2019-05-07T13:43:04.657Z,4.91
2019-05-07T13:48:04.940Z,5.88
2019-05-07T13:53:05.248Z,4.86
2019-05-07T13:58:05.539Z,3.44
2019-05-07T14:03:05.840Z,7.64
2019-05-07T14:08:06.001Z,4.54
2019-05-07T14:18:11.601Z,5.54
2019-05-07T14:28:18.727Z,5.12
2019-05-07T14:33:06.195Z,6.04
2019-05-07T14:43:27.399Z,5.99
2019-05-07T14:48:27.602Z,4.88
2019-05-07T14:53:29.032Z,7.13
2019-05-07T15:03:20.360Z,4.89
2019-05-07T15:13:32.796Z,5.52
2019-05-07T15:18:42.272Z,7.34
2019-05-07T15:29:01.727Z,5.42
2019-05-07T15:34:03.045Z,6.41
2019-05-07T15:54:14.975Z,7.99
2019-05-07T15:59:05.352Z,6.30
2019-05-07T16:04:26.048Z,5.82
2019-05-07T16:09:26.935Z,8.39
2019-05-07T16:14:27.332Z,5.32
2019-05-07T16:19:27.557Z,7.32
2019-05-07T16:24:15.053Z,7.11
2019-05-07T16:29:25.551Z,5.70
2019-05-07T16:34:33.342Z,7.62
2019-05-07T16:39:53.683Z,9.49
2019-05-07T16:44:53.895Z,9.11
2019-05-07T16:49:54.106Z,9.88
2019-05-07T16:54:42.639Z,10.86
2019-05-07T16:59:48.754Z,12.89
2019-05-07T17:05:12.155Z,13.35
2019-05-07T17:09:57.255Z,15.10
2019-05-07T17:15:18.588Z,12.54
2019-05-07T17:20:21.860Z,14.70
2019-05-07T17:25:20.008Z,12.64
2019-05-07T17:30:11.738Z,14.44
2019-05-07T17:35:22.321Z,15.04
2019-05-07T17:40:07.954Z,12.57
2019-05-07T17:45:28.349Z,15.92
2019-05-07T17:50:15.577Z,12.15
2019-05-07T17:55:36.536Z,12.05
2019-05-07T18:00:37.670Z,10.61
2019-05-07T18:05:25.970Z,9.93
2019-05-07T18:10:35.168Z,13.26
2019-05-07T18:15:56.409Z,11.22
2019-05-07T18:20:43.687Z,12.92
2019-05-07T18:26:04.131Z,8.85
2019-05-07T18:35:52.717Z,10.90
2019-05-07T18:46:03.305Z,9.39
2019-05-07T18:51:12.124Z,8.25
2019-05-07T18:56:32.137Z,10.57
2019-05-07T19:01:19.813Z,9.87
2019-05-07T19:06:42.268Z,7.73
2019-05-07T19:11:27.291Z,7.64
2019-05-07T19:16:35.654Z,8.98
2019-05-07T19:21:55.882Z,8.72
2019-05-07T19:26:43.298Z,10.29
2019-05-07T19:31:52.373Z,10.31
2019-05-07T19:36:57.734Z,8.74
2019-05-07T19:42:06.006Z,9.92
2019-05-07T19:47:13.222Z,11.64
2019-05-07T19:52:23.127Z,15.29
2019-05-07T19:57:29.051Z,14.48
2019-05-07T20:02:52.568Z,15.26
2019-05-07T20:07:38.059Z,16.57
2019-05-07T20:12:58.181Z,16.15
2019-05-07T20:22:51.823Z,16.21
2019-05-07T20:27:58.153Z,20.98
2019-05-07T20:38:10.111Z,19.81
2019-05-07T20:43:33.035Z,17.86
2019-05-07T20:48:22.500Z,19.38
2019-05-07T20:53:28.447Z,17.32
2019-05-07T20:58:35.168Z,18.38
2019-05-07T21:03:44.163Z,15.72
2019-05-07T21:09:04.394Z,16.82
2019-05-07T21:13:52.678Z,13.63
2019-05-07T21:29:09.582Z,11.83
2019-05-07T21:34:31.866Z,12.25
2019-05-07T21:39:19.070Z,13.09
2019-05-07T21:44:40.248Z,15.49
2019-05-07T21:49:42.855Z,18.36
2019-05-07T21:54:27.891Z,19.06
2019-05-07T21:59:36.437Z,18.96
2019-05-07T22:04:44.555Z,20.17
2019-05-07T22:09:52.333Z,21.81
2019-05-07T22:15:12.871Z,22.63
2019-05-07T22:19:59.684Z,22.33
2019-05-07T22:30:23.194Z,23.21
2019-05-07T22:35:09.011Z,22.83
2019-05-07T22:40:32.034Z,20.38
2019-05-07T22:50:33.137Z,24.19
2019-05-07T22:55:19.338Z,25.91
2019-05-07T23:00:27.618Z,25.99
2019-05-07T23:05:48.761Z,26.44
2019-05-07T23:10:37.121Z,25.29
2019-05-07T23:15:58.244Z,26.67
2019-05-07T23:20:59.641Z,32.76
2019-05-07T23:25:47.128Z,28.78
2019-05-07T23:30:54.497Z,31.05
2019-05-07T23:36:02.711Z,28.81
2019-05-07T23:41:12.663Z,29.10
2019-05-07T23:46:31.327Z,33.51
2019-05-07T23:56:26.879Z,30.12
